Weather at Fuerteventura Airport

Public forecast

Using degrees Celsius for public forecast. Weather courtesy of forecast.io.

Current aviation weather report (METAR) for Fuerteventura Airport

Retrieved 2020/10/29 02:30 UTC (0 seconds ago):

GCFV 290230Z AUTO 34007KT 9999 BKN023 BKN030 20/15 Q1019

Aviation forecast (TAF) for Fuerteventura Airport

Retrieved 2020-10-29 03:27 UTC (0 seconds ago):

TAF TAF GCFV 290200Z 2903/3003 35010KT 9999 FEW030 TX26/2914Z TN19/2907Z BECMG 2909/2911 05013KT BECMG 2918/2920 35010KT